Clintwood, VA

5:28 PM EST on February 10, 2016 (GMT -0500)
Ramey Flats | | Change Station
CLOSE
Current Station
Personal Weather Station
Location: Clintwood, VA
Elevation: 1795 ft
Nearby Weather Stations
Active Advisory: Winter Weather Advisory Active Notice: Local Storm Report

Elev 1795 ft 37.21 °N, 82.44 °W | Updated 10 minutes ago

Overcast
Overcast
17.6 °F
Feels Like 18 °F
N
1.0
Wind Variable Wind from South
Gusts 3.0 mph

Today
High -- | Low -- °F
--% Chance of Precip.
Yesterday
High -- | Low -- °F
Precip. -- in
Pressure 29.91 in
Visibility 10.0 miles
Clouds Overcast 2700 ft
Windchill 18 °F
Dew Point 10 °F
Humidity 73%
Rainfall 0.00 in
Snow Depth Not available.
7:24 AM 6:03 PM
Waxing Crescent, 7% visible
METAR KLNP 102215Z AUTO 25010KT 10SM OVC027 M08/M16 A2991 RMK AO2
Pressure 29.91 in
Visibility 10.0 miles
Clouds Overcast 2700 ft
Windchill 18 °F
Dew Point 10 °F
Humidity 73%
Rainfall 0.00 in
Snow Depth Not available.
7:24 AM 6:03 PM
Waxing Crescent, 7% visible
METAR KLNP 102215Z AUTO 25010KT 10SM OVC027 M08/M16 A2991 RMK AO2

10-Day Weather Forecast

Almanac

Astronomy

Feb. 10, 2016 Rise Set
Actual Time
Civil Twilight
Nautical Twilight
Astronomical Twilight
Moon
Length of Visible Light
Length of Day
Tomorrow will be .
, % of the Moon is Illuminated

Today's Extremes

State Highs State Lows

Community

WunderPhotos

Upload Photos

1,891,952 photos uploaded!

WunderBlog® & News

Nearby

Air Quality

  Air Quality AQ Index Pollutant
Not available.

Snow Depth

Station Depth Elevation

Earthquake Activity

City Distance Mag. Time & Date
Minimum magnitude displayed is 2.5.

Coastal Water Temperatures

Place Temperature

Stations

Nearby Weather Stations

Station Location Temp. Windchill Dew Point Humidity Wind Precip. Elev Updated Type
                   

Watches & Warnings

Winter Weather Advisory
Issued: 3:43 PM EST Feb. 10, 2016 – National Weather Service

... Winter Weather Advisory remains in effect until 6 PM EST this
evening...

* hazard types... snow showers of varying intensity.

* Total snow accumulations from Monday night through today... 2
to 5 inches in southern Ohio... southern West Virginia and
southwest Virginia... 4 to 9 inches in portions of north
central West Virginia.

* Temperatures... in the lower 20s.

* Impacts... travel may be difficult at times. Visibilities will
be limited at times.

Precautionary/preparedness actions...

A Winter Weather Advisory for snow means that periods of snow
will cause primarily travel difficulties. Be prepared for snow
covered roads and limited visibilities... and use caution while
driving.

With the colder weather... have your vehicle equipped with
emergency supplies.